Rechercher aéroport 
image banner adimage banner adimage banner ad
image banner ad

KAHC - Amedee Aaf

Situé à Herlong, United States

ICAO - AHC, IATA - AHC

Données fournies par Airmate  

Information générale

Coordonnées: N40°15'57" W120°9'2"
Élévation : 4012 feet MSL.
Variation magnétique : 13° East
Voir autres Aéroports à California

Données opérationnelles

Special qualification required
Heure actuelle UTC:
Heure actuelle locale:
Météo à : KSVE - Susanville Muni ( 38 km )
METAR: KSVE 251515Z AUTO 00000KT 2 1/2SM HZ CLR 22/03 A3012 RMK AO2
Voir NOTAMs / SUP AIP / TFR affectant cet aéroport [VIEW]
Fréquences de communication: [VIEW]

Pistes:

Identifiant RWYQFULongueur (ft)Largeur (ft)SurfaceLDA (ft)
0910000150OTHER
2710000150OTHER

Coordonnées de l'aéroport

Adresse: Herlong United States

Vue satellite de KAHC